Hendersonville, Tennessee
Current Conditions -  °F | °C
As of 11:53 PM on Tuesday 25 Nov 2014 (Local Time) from KBNA Reporting Station
Few Clouds Few Clouds  
Wind Chill: 32°   Ceiling: Unl
Heat Index: 37°   Visibility: 10mi
Dew Point: 28°   Wind: 6mph
Humidity: 70%   Direction: 350°N
Pressure: 30.15"   Gusts: NA
Location:  36.3°N, 86.62°W
Report Text: KBNA 260553Z 35005KT 10SM FEW150 03/M02 A3015 RMK AO2 SLP209 T00281022 10072 20022 401110006 58008
Loading
Personal Weather Stations






























Interactive Weather Map New forecast layout! Learn more

10-Day Weather Forecast

Advertisements
Track Severe Weather on mobile